createdAt,value
2019-05-26T00:01:26.510Z,20.88
2019-05-26T00:04:02.200Z,24.47
2019-05-26T00:06:35.673Z,22.35
2019-05-26T00:09:09.006Z,21.52
2019-05-26T00:11:41.434Z,22.13
2019-05-26T00:14:13.968Z,22.58
2019-05-26T00:16:47.646Z,26.50
2019-05-26T00:19:21.120Z,25.48
2019-05-26T00:21:53.985Z,25.08
2019-05-26T00:24:28.799Z,25.05
2019-05-26T00:27:01.313Z,25.00
2019-05-26T00:29:34.937Z,24.10
2019-05-26T00:32:07.401Z,24.15
2019-05-26T00:37:11.751Z,23.50
2019-05-26T00:42:15.738Z,26.02
2019-05-26T00:44:49.137Z,25.70
2019-05-26T00:47:21.704Z,25.43
2019-05-26T00:49:55.209Z,25.37
2019-05-26T00:52:29.898Z,23.98
2019-05-26T00:55:02.601Z,23.47
2019-05-26T00:57:35.929Z,24.23
2019-05-26T01:00:14.898Z,25.25
2019-05-26T01:02:47.431Z,26.70
2019-05-26T01:05:22.719Z,25.97
2019-05-26T01:08:05.693Z,28.70
2019-05-26T01:10:29.679Z,27.20
2019-05-26T01:15:34.004Z,30.15
2019-05-26T01:18:07.521Z,28.20
2019-05-26T01:20:40.167Z,27.67
2019-05-26T01:23:13.173Z,30.95
2019-05-26T01:28:19.409Z,29.98
2019-05-26T01:30:52.366Z,28.87
2019-05-26T01:33:25.991Z,30.50
2019-05-26T01:35:59.159Z,30.75
2019-05-26T01:38:32.343Z,32.03
2019-05-26T01:41:06.184Z,35.33
2019-05-26T01:43:39.203Z,39.42
2019-05-26T01:46:13.560Z,38.88
2019-05-26T01:48:47.701Z,40.58
2019-05-26T01:51:20.462Z,41.48
2019-05-26T01:53:55.535Z,36.55
2019-05-26T01:56:32.823Z,39.42
2019-05-26T01:59:07.612Z,36.45
2019-05-26T02:01:40.169Z,32.45
2019-05-26T02:04:12.724Z,32.85
2019-05-26T02:09:18.226Z,31.50
2019-05-26T02:11:52.490Z,31.40
2019-05-26T02:14:27.801Z,32.50
2019-05-26T02:17:00.697Z,31.30
2019-05-26T02:19:33.907Z,32.10
2019-05-26T02:22:07.460Z,30.60
2019-05-26T02:24:40.056Z,37.15
2019-05-26T02:29:44.912Z,27.27
2019-05-26T02:32:17.305Z,27.95
2019-05-26T02:34:51.169Z,24.50
2019-05-26T02:37:23.957Z,26.93
2019-05-26T02:42:29.980Z,26.97
2019-05-26T02:45:03.285Z,26.20
2019-05-26T02:47:36.443Z,24.18
2019-05-26T02:50:11.565Z,27.00
2019-05-26T02:52:45.792Z,26.27
2019-05-26T02:55:20.421Z,25.88
2019-05-26T02:57:53.104Z,26.80
2019-05-26T03:03:12.205Z,28.42
2019-05-26T03:05:48.246Z,27.00
2019-05-26T03:08:21.929Z,27.62
2019-05-26T03:10:55.915Z,26.70
2019-05-26T03:13:30.694Z,27.17
2019-05-26T03:16:03.850Z,26.93
2019-05-26T03:18:38.350Z,27.13
2019-05-26T03:21:15.628Z,27.13
2019-05-26T03:23:50.868Z,26.42
2019-05-26T03:26:24.882Z,26.52
2019-05-26T03:28:57.407Z,26.50
2019-05-26T03:31:30.341Z,26.77
2019-05-26T03:34:03.121Z,23.85
2019-05-26T03:36:36.572Z,23.80
2019-05-26T03:39:09.879Z,26.57
2019-05-26T03:41:42.640Z,23.90
2019-05-26T03:44:15.032Z,24.23
2019-05-26T03:46:48.581Z,24.72
2019-05-26T03:49:21.525Z,24.02
2019-05-26T03:51:54.399Z,24.10
2019-05-26T03:56:59.124Z,26.77
2019-05-26T03:59:32.166Z,24.57
2019-05-26T04:02:05.174Z,24.72
2019-05-26T04:04:37.810Z,24.80
2019-05-26T04:07:13.300Z,21.90
2019-05-26T04:10:03.718Z,23.07
2019-05-26T04:12:24.519Z,21.07
2019-05-26T04:14:56.908Z,22.15
2019-05-26T04:17:29.575Z,22.60
2019-05-26T04:22:34.643Z,24.00
2019-05-26T04:27:40.697Z,23.50
2019-05-26T04:30:15.720Z,22.30
2019-05-26T04:32:48.722Z,23.42
2019-05-26T04:35:21.859Z,20.85
2019-05-26T04:37:56.703Z,21.82
2019-05-26T04:40:30.856Z,22.77
2019-05-26T04:43:04.040Z,20.95
2019-05-26T04:45:37.662Z,21.00
2019-05-26T04:48:10.677Z,18.98
2019-05-26T04:53:15.631Z,21.67
2019-05-26T04:55:48.161Z,15.75
2019-05-26T04:58:20.817Z,17.17
2019-05-26T05:00:53.158Z,18.50
2019-05-26T05:03:25.731Z,20.85
2019-05-26T05:05:57.847Z,24.30
2019-05-26T05:08:30.709Z,23.12
2019-05-26T05:11:03.183Z,22.25
2019-05-26T05:16:07.172Z,19.98
2019-05-26T05:18:39.504Z,18.17
2019-05-26T05:21:12.458Z,18.85
2019-05-26T05:23:45.647Z,16.42
2019-05-26T05:26:18.148Z,22.42
2019-05-26T05:28:51.679Z,21.90
2019-05-26T05:31:25.134Z,20.02
2019-05-26T05:33:57.964Z,20.48
2019-05-26T05:36:32.084Z,20.45
2019-05-26T05:39:06.504Z,20.37
2019-05-26T05:41:39.366Z,19.87
2019-05-26T05:44:11.937Z,21.73
2019-05-26T05:46:44.511Z,19.95
2019-05-26T05:49:17.326Z,19.90
2019-05-26T05:51:50.424Z,19.52
2019-05-26T05:54:22.866Z,20.75
2019-05-26T05:56:55.873Z,20.60
2019-05-26T05:59:29.110Z,19.42
2019-05-26T06:02:01.903Z,19.90
2019-05-26T06:04:35.091Z,21.93
2019-05-26T06:07:07.398Z,21.02
2019-05-26T06:09:39.952Z,16.85
2019-05-26T06:12:12.540Z,21.55
2019-05-26T06:14:45.450Z,23.83
2019-05-26T06:17:17.700Z,24.07
2019-05-26T06:19:50.830Z,19.15
2019-05-26T06:22:23.954Z,18.48
2019-05-26T06:24:57.733Z,19.12
2019-05-26T06:27:30.998Z,20.08
2019-05-26T06:30:03.843Z,20.65
2019-05-26T06:32:36.923Z,18.60
2019-05-26T06:35:20.226Z,17.80
2019-05-26T06:37:55.384Z,19.55
2019-05-26T06:40:27.734Z,18.45
2019-05-26T06:43:00.359Z,19.17
2019-05-26T06:45:33.460Z,19.48
2019-05-26T06:48:06.196Z,18.98
2019-05-26T06:53:10.394Z,17.82
2019-05-26T06:55:42.972Z,17.82
2019-05-26T06:58:15.651Z,18.50
2019-05-26T07:00:48.372Z,19.02
2019-05-26T07:03:21.010Z,19.65
2019-05-26T07:05:53.689Z,18.70
2019-05-26T07:08:26.036Z,18.45
2019-05-26T07:10:58.560Z,18.98
2019-05-26T07:13:31.267Z,18.35
2019-05-26T07:16:04.201Z,17.48
2019-05-26T07:18:36.635Z,19.62
2019-05-26T07:21:09.084Z,16.95
2019-05-26T07:23:41.826Z,18.42
2019-05-26T07:26:14.776Z,19.00
2019-05-26T07:28:47.813Z,18.07
2019-05-26T07:31:20.508Z,19.75
2019-05-26T07:33:52.957Z,18.60
2019-05-26T07:36:25.707Z,20.97
2019-05-26T07:38:58.524Z,19.80
2019-05-26T07:41:31.025Z,20.82
2019-05-26T07:44:04.247Z,20.32
2019-05-26T07:46:36.619Z,19.48
2019-05-26T07:49:09.127Z,19.87
2019-05-26T07:54:25.075Z,19.67
2019-05-26T07:56:46.989Z,19.00
2019-05-26T07:59:20.055Z,20.92
2019-05-26T08:01:52.768Z,18.92
2019-05-26T08:04:25.628Z,18.98
2019-05-26T08:06:59.193Z,20.00
2019-05-26T08:09:32.629Z,20.08
2019-05-26T08:12:06.570Z,18.82
2019-05-26T08:14:39.694Z,18.23
2019-05-26T08:19:43.250Z,20.62
2019-05-26T08:22:15.338Z,19.92
2019-05-26T08:24:48.328Z,20.85
2019-05-26T08:27:20.900Z,18.90
2019-05-26T08:29:53.585Z,20.00
2019-05-26T08:32:26.406Z,19.95
2019-05-26T08:34:59.051Z,20.65
2019-05-26T08:37:31.928Z,20.32
2019-05-26T08:40:21.398Z,20.17
2019-05-26T08:42:54.875Z,19.02
2019-05-26T08:45:27.232Z,20.08
2019-05-26T08:48:00.054Z,18.32
2019-05-26T08:50:34.492Z,18.90
2019-05-26T08:53:06.926Z,20.23
2019-05-26T08:55:40.756Z,18.12
2019-05-26T09:00:45.825Z,19.73
2019-05-26T09:03:18.628Z,19.37
2019-05-26T09:08:23.090Z,18.62
2019-05-26T09:10:55.710Z,18.27
2019-05-26T09:13:28.413Z,20.40
2019-05-26T09:16:01.116Z,19.42
2019-05-26T09:18:33.700Z,20.62
2019-05-26T09:23:38.671Z,19.02
2019-05-26T09:26:11.956Z,18.92
2019-05-26T09:28:44.484Z,19.85
2019-05-26T09:31:16.855Z,21.85
2019-05-26T09:33:49.752Z,20.68
2019-05-26T09:36:22.116Z,20.72
2019-05-26T09:38:54.657Z,20.92
2019-05-26T09:41:31.285Z,22.67
2019-05-26T09:44:04.509Z,22.73
2019-05-26T09:46:38.066Z,22.82
2019-05-26T09:49:10.821Z,23.02
2019-05-26T09:51:43.606Z,23.83
2019-05-26T09:54:15.945Z,23.45
2019-05-26T09:56:52.936Z,23.25
2019-05-26T09:59:53.477Z,22.27
2019-05-26T10:02:26.451Z,22.13
2019-05-26T10:04:59.610Z,20.30
2019-05-26T10:07:35.537Z,20.43
2019-05-26T10:10:13.438Z,19.35
2019-05-26T10:12:46.772Z,20.40
2019-05-26T10:15:24.209Z,19.85
2019-05-26T10:17:56.300Z,21.77
2019-05-26T10:20:29.416Z,22.62
2019-05-26T10:23:01.976Z,22.05
2019-05-26T10:28:06.434Z,12.18
2019-05-26T10:30:39.370Z,11.68
2019-05-26T10:33:11.739Z,12.40
2019-05-26T10:35:44.707Z,7.55
2019-05-26T10:38:23.314Z,11.85
2019-05-26T10:40:58.403Z,12.40
2019-05-26T10:43:44.502Z,11.28
2019-05-26T10:46:08.966Z,8.43
2019-05-26T10:48:41.846Z,13.70
2019-05-26T10:51:14.998Z,7.17
2019-05-26T10:53:47.197Z,6.37
2019-05-26T10:56:19.979Z,5.10
2019-05-26T10:58:53.395Z,7.55
2019-05-26T11:01:30.376Z,5.35
2019-05-26T11:04:02.972Z,4.97
2019-05-26T11:06:37.256Z,10.30
2019-05-26T11:09:10.619Z,10.72
2019-05-26T11:11:45.860Z,11.05
2019-05-26T11:14:18.997Z,11.10
2019-05-26T11:16:55.828Z,11.90
2019-05-26T11:19:29.170Z,12.85
2019-05-26T11:22:02.055Z,10.93
2019-05-26T11:27:10.987Z,10.90
2019-05-26T11:29:40.362Z,13.65
2019-05-26T11:32:13.380Z,13.75
2019-05-26T15:27:40.503Z,33.70
2019-05-26T15:30:13.978Z,46.37
2019-05-26T15:32:47.866Z,52.40
2019-05-26T15:35:20.451Z,50.60
2019-05-26T15:37:53.326Z,55.78
2019-05-26T15:40:25.516Z,55.50
2019-05-26T15:42:58.688Z,50.85
2019-05-26T15:45:31.206Z,47.88
2019-05-26T15:48:04.289Z,51.18
2019-05-26T15:50:36.521Z,53.40
2019-05-26T15:53:09.367Z,50.03
2019-05-26T15:58:13.447Z,51.85
2019-05-26T16:01:05.801Z,18.35
2019-05-26T16:03:38.951Z,33.53
2019-05-26T16:08:43.208Z,20.23
2019-05-26T16:13:47.657Z,51.00
2019-05-26T16:18:53.220Z,26.10
2019-05-26T16:21:28.376Z,38.05
2019-05-26T16:24:00.937Z,44.45
2019-05-26T16:26:33.694Z,40.83
2019-05-26T16:29:07.107Z,48.78
2019-05-26T16:31:39.607Z,52.08
2019-05-26T16:34:12.413Z,46.68
2019-05-26T16:39:16.345Z,31.87
2019-05-26T16:44:20.347Z,24.35
2019-05-26T16:46:56.471Z,9.98
2019-05-26T16:49:28.059Z,23.10
2019-05-26T16:52:00.654Z,11.50
2019-05-26T16:54:34.665Z,15.45
2019-05-26T16:57:07.401Z,9.78
2019-05-26T16:59:40.849Z,10.40
2019-05-26T17:02:13.224Z,10.08
2019-05-26T17:04:45.908Z,9.35
2019-05-26T17:07:18.291Z,10.58
2019-05-26T17:09:51.420Z,10.15
2019-05-26T17:14:55.371Z,8.10
2019-05-26T17:17:27.965Z,8.53
2019-05-26T17:22:31.709Z,7.55
2019-05-26T17:27:35.253Z,7.90
2019-05-26T17:30:09.653Z,7.67
2019-05-26T17:32:42.217Z,8.28
2019-05-26T17:35:15.858Z,8.88
2019-05-26T17:37:48.122Z,8.50
2019-05-26T17:40:23.337Z,8.68
2019-05-26T17:42:55.806Z,7.78
2019-05-26T17:45:28.689Z,8.20
2019-05-26T17:48:00.992Z,9.23
2019-05-26T17:50:33.546Z,11.28
2019-05-26T17:53:05.986Z,9.30
2019-05-26T17:55:39.170Z,9.68
2019-05-26T17:58:11.575Z,9.75
2019-05-26T18:00:44.273Z,8.80
2019-05-26T18:06:01.211Z,8.63
2019-05-26T18:08:36.352Z,8.13
2019-05-26T18:11:09.142Z,8.15
2019-05-26T18:13:42.046Z,6.62
2019-05-26T18:16:14.920Z,8.05
2019-05-26T18:21:19.179Z,7.08
2019-05-26T18:26:23.043Z,6.83
2019-05-26T18:28:55.882Z,5.42
2019-05-26T18:31:29.147Z,5.45
2019-05-26T18:34:02.078Z,6.25
2019-05-26T18:36:34.324Z,6.12
2019-05-26T18:39:09.980Z,5.67
2019-05-26T18:41:42.301Z,6.87
2019-05-26T18:44:14.958Z,7.60
2019-05-26T18:46:47.423Z,7.62
2019-05-26T18:51:51.634Z,9.10
2019-05-26T18:54:24.352Z,9.70
2019-05-26T18:56:56.654Z,9.83
2019-05-26T18:59:29.600Z,9.90
2019-05-26T19:02:02.304Z,9.25
2019-05-26T19:07:06.080Z,8.28
2019-05-26T19:09:38.998Z,10.43
2019-05-26T19:12:11.706Z,8.73
2019-05-26T19:17:15.949Z,9.88
2019-05-26T19:19:48.739Z,10.20
2019-05-26T19:22:21.156Z,11.12
2019-05-26T19:24:53.880Z,9.83
2019-05-26T19:27:26.451Z,9.55
2019-05-26T19:29:59.264Z,9.95
2019-05-26T19:32:31.715Z,10.45
2019-05-26T19:35:04.378Z,12.00
2019-05-26T19:37:37.417Z,11.25
2019-05-26T19:40:11.373Z,12.20
2019-05-26T19:42:43.891Z,13.35
2019-05-26T19:47:48.266Z,15.63
2019-05-26T19:50:21.149Z,16.62
2019-05-26T19:52:53.830Z,15.30
2019-05-26T19:55:26.499Z,14.83
2019-05-26T19:57:58.835Z,14.93
2019-05-26T20:00:33.355Z,15.23
2019-05-26T20:03:05.774Z,14.83
2019-05-26T20:05:38.464Z,14.07
2019-05-26T20:08:11.312Z,13.78
2019-05-26T20:13:15.391Z,14.93
2019-05-26T20:15:48.021Z,13.20
2019-05-26T20:18:20.513Z,13.48
2019-05-26T20:20:53.661Z,13.40
2019-05-26T20:23:26.170Z,15.23
2019-05-26T20:25:58.865Z,13.00
2019-05-26T20:28:31.216Z,14.05
2019-05-26T20:31:04.149Z,14.25
2019-05-26T20:33:36.797Z,14.07
2019-05-26T20:36:09.438Z,13.30
2019-05-26T20:38:41.838Z,13.10
2019-05-26T20:41:14.499Z,13.00
2019-05-26T20:43:46.850Z,12.47
2019-05-26T20:46:19.860Z,12.47
2019-05-26T20:48:52.263Z,11.63
2019-05-26T20:51:25.151Z,12.50
2019-05-26T20:53:57.992Z,11.80
2019-05-26T20:56:30.569Z,10.63
2019-05-26T20:59:02.976Z,11.88
2019-05-26T21:04:07.669Z,11.63
2019-05-26T21:06:40.216Z,10.53
2019-05-26T21:09:12.789Z,11.28
2019-05-26T21:11:45.738Z,11.22
2019-05-26T21:14:18.019Z,10.98
2019-05-26T21:16:50.812Z,13.08
2019-05-26T21:19:23.189Z,12.88
2019-05-26T21:21:55.824Z,14.30
2019-05-26T21:24:28.553Z,14.25
2019-05-26T21:27:01.384Z,16.10
2019-05-26T21:29:33.843Z,17.48
2019-05-26T21:32:06.850Z,18.62
2019-05-26T21:34:40.192Z,19.62
2019-05-26T21:37:12.981Z,21.50
2019-05-26T21:39:45.914Z,21.48
2019-05-26T21:42:18.455Z,20.48
2019-05-26T21:44:51.246Z,22.40
2019-05-26T21:47:23.654Z,23.73
2019-05-26T21:49:56.130Z,21.62
2019-05-26T21:52:28.651Z,22.20
2019-05-26T21:55:00.956Z,21.50
2019-05-26T21:57:54.552Z,19.92
2019-05-26T22:00:29.344Z,18.82
2019-05-26T22:03:04.030Z,19.67
2019-05-26T22:05:36.614Z,17.15
2019-05-26T22:08:09.634Z,15.10
2019-05-26T22:10:42.103Z,16.97
2019-05-26T22:13:15.092Z,16.67
2019-05-26T22:18:20.167Z,16.87
2019-05-26T22:20:52.728Z,18.42
2019-05-26T22:23:26.196Z,17.37
2019-05-26T22:25:59.945Z,17.85
2019-05-26T22:28:32.701Z,19.17
2019-05-26T22:31:05.089Z,17.77
2019-05-26T22:33:38.882Z,17.52
2019-05-26T22:38:43.045Z,19.25
2019-05-26T22:41:15.383Z,18.20
2019-05-26T22:43:48.563Z,17.65
2019-05-26T22:46:20.839Z,15.68
2019-05-26T22:48:53.596Z,16.90
2019-05-26T22:53:57.926Z,16.85
2019-05-26T22:56:30.919Z,16.17
2019-05-26T22:59:03.805Z,16.52
2019-05-26T23:01:36.265Z,14.73
2019-05-26T23:06:40.728Z,16.55
2019-05-26T23:11:44.824Z,16.85
2019-05-26T23:14:17.706Z,17.73
2019-05-26T23:16:50.336Z,15.68
2019-05-26T23:19:23.184Z,17.98
2019-05-26T23:24:29.339Z,17.00
2019-05-26T23:27:02.296Z,19.42
2019-05-26T23:29:35.173Z,19.65
2019-05-26T23:32:07.598Z,19.52
2019-05-26T23:34:40.225Z,26.85
2019-05-26T23:37:13.203Z,31.27
2019-05-26T23:39:45.704Z,27.42
2019-05-26T23:42:18.028Z,19.37
2019-05-26T23:44:50.563Z,19.12
2019-05-26T23:47:23.569Z,19.77
2019-05-26T23:49:56.129Z,19.65
2019-05-26T23:52:29.060Z,18.77
2019-05-26T23:55:01.632Z,19.25
2019-05-26T23:57:38.330Z,19.32
